createdAt,value
2023-04-24T00:00:21.595Z,17.28
2023-04-24T00:02:51.918Z,19.60
2023-04-24T00:05:22.096Z,18.15
2023-04-24T00:07:56.119Z,19.10
2023-04-24T00:10:25.928Z,18.42
2023-04-24T00:12:56.044Z,18.60
2023-04-24T00:15:25.721Z,18.10
2023-04-24T00:17:55.608Z,17.27
2023-04-24T00:20:25.377Z,17.30
2023-04-24T00:22:55.568Z,17.00
2023-04-24T00:25:25.197Z,17.20
2023-04-24T00:27:55.305Z,16.42
2023-04-24T00:30:25.315Z,17.70
2023-04-24T00:32:55.634Z,17.82
2023-04-24T00:35:25.868Z,18.95
2023-04-24T00:37:56.231Z,18.57
2023-04-24T00:40:25.751Z,18.60
2023-04-24T00:42:56.675Z,18.95
2023-04-24T00:45:27.521Z,19.33
2023-04-24T00:47:58.129Z,19.75
2023-04-24T00:50:28.055Z,19.37
2023-04-24T00:52:59.180Z,19.10
2023-04-24T00:55:29.448Z,17.92
2023-04-24T00:58:00.381Z,18.35
2023-04-24T01:00:31.022Z,17.63
2023-04-24T01:03:03.623Z,17.02
2023-04-24T01:05:35.241Z,16.05
2023-04-24T01:08:05.612Z,16.30
2023-04-24T01:10:36.565Z,16.20
2023-04-24T01:13:06.751Z,15.58
2023-04-24T01:15:37.355Z,16.43
2023-04-24T01:18:07.678Z,16.48
2023-04-24T01:20:40.269Z,16.60
2023-04-24T01:23:10.632Z,17.15
2023-04-24T01:25:40.766Z,17.33
2023-04-24T01:28:11.240Z,16.70
2023-04-24T01:30:41.282Z,17.97
2023-04-24T01:33:11.651Z,18.15
2023-04-24T01:35:42.047Z,19.87
2023-04-24T01:38:11.981Z,19.47
2023-04-24T01:40:42.258Z,21.20
2023-04-24T01:43:13.048Z,20.48
2023-04-24T01:45:42.907Z,20.87
2023-04-24T01:48:14.588Z,20.72
2023-04-24T01:50:44.528Z,22.83
2023-04-24T01:53:14.889Z,21.93
2023-04-24T01:55:45.018Z,24.00
2023-04-24T01:58:16.277Z,22.80
2023-04-24T02:00:46.438Z,22.87
2023-04-24T02:03:17.359Z,23.25
2023-04-24T02:05:47.234Z,22.07
2023-04-24T02:08:17.352Z,21.50
2023-04-24T02:10:47.465Z,22.13
2023-04-24T02:13:17.592Z,21.05
2023-04-24T02:15:47.432Z,20.47
2023-04-24T02:18:17.790Z,19.85
2023-04-24T02:20:47.592Z,19.47
2023-04-24T02:23:17.734Z,19.55
2023-04-24T02:25:48.231Z,19.83
2023-04-24T02:28:20.148Z,19.57
2023-04-24T02:30:49.948Z,20.53
2023-04-24T02:33:20.146Z,19.27
2023-04-24T02:35:50.036Z,20.63
2023-04-24T02:38:20.271Z,21.60
2023-04-24T02:40:50.135Z,20.27
2023-04-24T02:43:20.255Z,20.75
2023-04-24T02:45:50.233Z,22.03
2023-04-24T02:48:21.760Z,23.27
2023-04-24T02:50:51.997Z,22.73
2023-04-24T02:53:22.182Z,26.10
2023-04-24T02:55:52.013Z,28.80
2023-04-24T02:58:22.193Z,29.18
2023-04-24T03:00:59.207Z,29.00
2023-04-24T03:03:29.236Z,30.97
2023-04-24T03:05:59.748Z,31.57
2023-04-24T03:08:29.573Z,33.90
2023-04-24T03:10:59.447Z,32.87
2023-04-24T03:13:29.265Z,32.70
2023-04-24T03:15:59.182Z,32.47
2023-04-24T03:18:29.624Z,32.50
2023-04-24T03:21:00.339Z,34.20
2023-04-24T03:23:30.501Z,33.03
2023-04-24T03:26:00.542Z,32.17
2023-04-24T03:28:30.491Z,33.70
2023-04-24T03:31:02.318Z,33.02
2023-04-24T03:33:33.844Z,32.50
2023-04-24T03:36:04.289Z,32.13
2023-04-24T03:38:41.473Z,33.57
2023-04-24T03:41:18.787Z,32.23
2023-04-24T03:43:50.540Z,33.53
2023-04-24T03:46:21.364Z,30.54
2023-04-24T03:48:52.924Z,30.43
2023-04-24T03:51:24.523Z,30.03
2023-04-24T03:53:56.367Z,29.77
2023-04-24T03:56:26.683Z,28.83
2023-04-24T03:58:56.501Z,29.73
2023-04-24T04:01:26.547Z,29.73
2023-04-24T04:04:01.147Z,28.80
2023-04-24T04:06:35.425Z,29.02
2023-04-24T04:09:05.571Z,30.23
2023-04-24T04:11:36.328Z,26.67
2023-04-24T04:14:06.362Z,29.17
2023-04-24T04:16:37.551Z,26.80
2023-04-24T04:19:08.520Z,27.53
2023-04-24T04:21:38.498Z,27.83
2023-04-24T04:24:12.786Z,26.65
2023-04-24T04:26:46.254Z,26.10
2023-04-24T04:29:18.737Z,25.30
2023-04-24T04:31:49.309Z,25.97
2023-04-24T04:34:19.393Z,25.00
2023-04-24T04:36:49.236Z,24.23
2023-04-24T04:39:32.759Z,24.45
2023-04-24T04:42:04.838Z,24.63
2023-04-24T04:44:36.920Z,23.77
2023-04-24T04:47:07.544Z,22.70
2023-04-24T04:49:39.906Z,23.42
2023-04-24T04:52:12.191Z,22.77
2023-04-24T04:54:42.292Z,22.87
2023-04-24T04:57:13.013Z,23.30
2023-04-24T04:59:43.350Z,22.10
2023-04-24T05:02:15.111Z,22.75
2023-04-24T05:04:46.362Z,22.07
2023-04-24T05:07:16.955Z,22.17
2023-04-24T05:09:48.513Z,21.37
2023-04-24T05:12:18.406Z,22.08
2023-04-24T05:14:50.885Z,20.77
2023-04-24T05:17:20.784Z,21.10
2023-04-24T05:19:50.443Z,20.08
2023-04-24T05:22:21.915Z,18.57
2023-04-24T05:24:54.158Z,20.33
2023-04-24T05:27:42.210Z,19.27
2023-04-24T05:30:14.634Z,19.67
2023-04-24T05:32:44.660Z,17.10
2023-04-24T05:35:14.257Z,14.90
2023-04-24T05:37:44.144Z,14.30
2023-04-24T05:40:14.472Z,10.67
2023-04-24T05:42:45.192Z,10.70
2023-04-24T05:45:16.649Z,11.97
2023-04-24T05:47:46.643Z,11.73
2023-04-24T05:50:17.448Z,11.00
2023-04-24T05:52:47.455Z,10.47
2023-04-24T05:55:19.456Z,9.23
2023-04-24T05:57:49.430Z,7.60
2023-04-24T06:00:20.778Z,7.67
2023-04-24T06:02:53.975Z,5.80
2023-04-24T06:05:24.557Z,6.12
2023-04-24T06:07:55.969Z,6.58
2023-04-24T06:10:27.483Z,4.97
2023-04-24T06:12:58.975Z,4.80
2023-04-24T06:15:31.925Z,4.00
2023-04-24T06:18:06.456Z,3.43
2023-04-24T06:20:36.369Z,3.98
2023-04-24T06:23:06.220Z,3.23
2023-04-24T06:25:36.426Z,3.10
2023-04-24T06:28:07.049Z,2.57
2023-04-24T06:30:38.474Z,2.70
2023-04-24T06:33:19.615Z,2.63
2023-04-24T06:35:39.992Z,2.03
2023-04-24T06:38:09.599Z,1.90
2023-04-24T06:40:40.102Z,1.30
2023-04-24T06:43:10.602Z,1.10
2023-04-24T06:45:41.263Z,1.20
2023-04-24T06:48:11.864Z,0.90
2023-04-24T06:50:41.729Z,0.80
2023-04-24T06:53:13.170Z,0.70
2023-04-24T06:55:44.208Z,0.63
2023-04-24T06:58:14.703Z,0.72
2023-04-24T07:00:44.484Z,0.50
2023-04-24T07:03:14.486Z,0.97
2023-04-24T07:05:44.417Z,1.17
2023-04-24T07:08:17.407Z,1.10
2023-04-24T07:10:47.202Z,1.30
2023-04-24T07:13:17.302Z,1.50
2023-04-24T07:15:47.194Z,1.47
2023-04-24T07:18:17.333Z,1.68
2023-04-24T07:20:47.517Z,1.87
2023-04-24T07:23:17.584Z,2.20
2023-04-24T07:25:47.891Z,2.05
2023-04-24T07:28:18.935Z,2.25
2023-04-24T07:30:48.794Z,2.97
2023-04-24T07:33:18.758Z,4.97
2023-04-24T07:35:48.624Z,6.97
2023-04-24T07:38:20.178Z,9.83
2023-04-24T07:40:50.533Z,10.43
2023-04-24T07:43:22.357Z,12.20
2023-04-24T07:45:53.046Z,12.98
2023-04-24T07:48:23.208Z,12.90
2023-04-24T07:50:53.016Z,14.50
2023-04-24T07:53:22.960Z,13.60
2023-04-24T07:55:52.796Z,14.07
2023-04-24T07:58:22.674Z,15.03
2023-04-24T08:00:53.197Z,15.47
2023-04-24T08:03:22.963Z,14.90
2023-04-24T08:05:53.319Z,15.08
2023-04-24T08:08:24.902Z,15.70
2023-04-24T08:10:55.825Z,14.18
2023-04-24T08:13:25.919Z,13.93
2023-04-24T08:15:56.205Z,14.23
2023-04-24T08:18:25.839Z,13.27
2023-04-24T08:20:55.799Z,13.50
2023-04-24T08:23:25.699Z,12.87
2023-04-24T08:25:55.936Z,12.80
2023-04-24T08:28:25.661Z,12.00
2023-04-24T08:33:28.122Z,10.75
2023-04-24T08:35:58.262Z,10.75
2023-04-24T08:38:27.863Z,12.18
2023-04-24T08:41:00.387Z,12.87
2023-04-24T08:43:30.617Z,10.23
2023-04-24T08:46:01.253Z,10.83
2023-04-24T08:48:32.404Z,9.23
2023-04-24T08:51:03.229Z,9.07
2023-04-24T08:53:34.799Z,7.53
2023-04-24T08:56:05.711Z,7.07
2023-04-24T08:58:36.093Z,7.20
2023-04-24T09:01:07.230Z,6.50
2023-04-24T09:03:37.853Z,6.60
2023-04-24T09:06:11.392Z,6.92
2023-04-24T09:08:42.966Z,6.65
2023-04-24T09:11:13.398Z,7.00
2023-04-24T09:13:45.048Z,5.90
2023-04-24T09:16:15.755Z,5.42
2023-04-24T09:18:45.633Z,4.50
2023-04-24T09:21:15.684Z,3.73
2023-04-24T09:23:45.950Z,4.97
2023-04-24T09:26:15.920Z,4.28
2023-04-24T09:28:47.074Z,4.90
2023-04-24T09:31:19.677Z,4.73
2023-04-24T09:34:02.311Z,4.63
2023-04-24T09:36:40.197Z,3.87
2023-04-24T09:39:16.370Z,3.10
2023-04-24T09:41:48.094Z,2.80
2023-04-24T09:44:19.398Z,3.30
2023-04-24T09:46:55.636Z,3.03
2023-04-24T09:49:29.423Z,2.80
2023-04-24T09:52:13.191Z,2.87
2023-04-24T09:54:43.117Z,3.10
2023-04-24T09:57:12.969Z,3.00
2023-04-24T09:59:47.821Z,2.83
2023-04-24T10:02:23.569Z,2.75
2023-04-24T10:05:01.454Z,2.40
2023-04-24T10:07:33.170Z,3.37
2023-04-24T10:10:03.307Z,2.60
2023-04-24T10:12:33.586Z,2.87
2023-04-24T10:15:04.157Z,2.45
2023-04-24T10:17:34.390Z,3.20
2023-04-24T10:20:08.132Z,2.34
2023-04-24T10:22:38.868Z,2.73
2023-04-24T10:25:09.261Z,2.87
2023-04-24T10:27:39.865Z,2.53
2023-04-24T10:30:11.062Z,2.28
2023-04-24T10:32:41.028Z,1.80
2023-04-24T10:35:11.922Z,1.87
2023-04-24T10:38:08.654Z,1.57
2023-04-24T10:40:38.901Z,2.00
2023-04-24T10:43:13.270Z,1.70
2023-04-24T10:45:43.142Z,2.43
2023-04-24T10:48:14.902Z,2.30
2023-04-24T10:50:48.533Z,1.72
2023-04-24T10:53:21.263Z,1.40
2023-04-24T10:56:02.599Z,1.53
2023-04-24T10:58:41.654Z,1.37
2023-04-24T11:01:13.013Z,1.13
2023-04-24T11:03:47.755Z,1.05
2023-04-24T11:06:17.740Z,1.17
2023-04-24T11:08:50.034Z,1.00
2023-04-24T11:11:22.226Z,1.10
2023-04-24T11:14:00.965Z,0.70
2023-04-24T11:16:39.952Z,1.00
2023-04-24T11:19:12.201Z,1.23
2023-04-24T11:21:44.499Z,1.00
2023-04-24T11:24:43.497Z,1.25
2023-04-24T11:27:20.919Z,1.10
2023-04-24T11:30:05.377Z,1.17
2023-04-24T11:32:38.457Z,1.10
2023-04-24T11:35:26.118Z,0.80
2023-04-24T11:40:28.223Z,1.50
2023-04-24T11:42:58.196Z,1.20
2023-04-24T11:45:31.034Z,1.70
2023-04-24T11:48:01.024Z,1.40
2023-04-24T11:50:31.249Z,1.50
2023-04-24T11:53:01.446Z,1.30
2023-04-24T11:55:31.762Z,0.90
2023-04-24T11:58:02.523Z,0.80
2023-04-24T12:00:37.657Z,1.10
2023-04-24T12:03:10.190Z,0.93
2023-04-24T12:05:41.460Z,1.20
2023-04-24T12:08:12.577Z,0.90
2023-04-24T12:10:42.363Z,0.80
2023-04-24T12:13:12.710Z,0.70
2023-04-24T12:15:43.281Z,0.60
2023-04-24T12:18:14.846Z,0.60
2023-04-24T12:20:44.683Z,1.00
2023-04-24T12:23:14.277Z,1.07
2023-04-24T12:25:44.113Z,1.07
2023-04-24T12:28:15.139Z,1.67
2023-04-24T12:30:46.647Z,1.47
2023-04-24T12:33:21.490Z,0.93
2023-04-24T12:35:56.474Z,1.17
2023-04-24T12:38:30.489Z,1.20
2023-04-24T12:41:12.014Z,1.60
2023-04-24T12:43:52.938Z,1.47
2023-04-24T12:46:23.029Z,1.40
2023-04-24T12:48:52.973Z,1.87
2023-04-24T12:51:22.882Z,1.10
2023-04-24T12:53:56.065Z,1.00
2023-04-24T12:56:25.368Z,0.90
2023-04-24T12:58:55.353Z,1.07
2023-04-24T13:01:25.312Z,1.00
2023-04-24T13:03:55.935Z,1.20
2023-04-24T13:06:27.280Z,1.17
2023-04-24T13:08:58.845Z,0.70
2023-04-24T13:11:29.006Z,0.85
2023-04-24T13:13:58.795Z,1.10
2023-04-24T13:16:28.759Z,1.30
2023-04-24T13:18:58.566Z,1.67
2023-04-24T13:21:28.439Z,1.20
2023-04-24T13:23:58.371Z,1.97
2023-04-24T13:26:28.149Z,1.03
2023-04-24T13:28:57.965Z,1.43
2023-04-24T13:31:27.844Z,1.07
2023-04-24T13:33:57.707Z,1.13
2023-04-24T13:36:27.781Z,1.30
2023-04-24T13:38:57.621Z,1.10
2023-04-24T13:41:27.572Z,1.17
2023-04-24T13:43:57.772Z,1.55
2023-04-24T13:46:28.051Z,1.70
2023-04-24T13:48:58.461Z,1.30
2023-04-24T13:51:28.724Z,1.30
2023-04-24T13:53:58.354Z,1.30
2023-04-24T13:56:28.498Z,2.20
2023-04-24T13:58:58.848Z,2.17
2023-04-24T14:01:28.764Z,2.00
2023-04-24T14:03:59.119Z,2.33
2023-04-24T14:06:29.109Z,1.67
2023-04-24T14:08:59.018Z,1.63
2023-04-24T14:11:29.384Z,1.30
2023-04-24T14:13:59.294Z,1.27
2023-04-24T14:16:30.196Z,1.93
2023-04-24T14:19:00.242Z,1.90
2023-04-24T14:21:30.076Z,2.27
2023-04-24T14:23:59.873Z,2.03
2023-04-24T14:26:29.806Z,2.50
2023-04-24T14:29:11.535Z,2.13
2023-04-24T14:31:31.825Z,2.07
2023-04-24T14:34:01.982Z,2.72
2023-04-24T14:36:32.556Z,2.77
2023-04-24T14:39:04.234Z,2.53
2023-04-24T14:41:36.827Z,3.33
2023-04-24T14:44:08.181Z,2.10
2023-04-24T14:46:38.057Z,3.30
2023-04-24T14:49:09.577Z,2.70
2023-04-24T14:51:40.105Z,2.87
2023-04-24T14:54:11.317Z,2.20
2023-04-24T14:56:41.958Z,2.40
2023-04-24T14:59:12.298Z,2.47
2023-04-24T15:01:42.118Z,2.47
2023-04-24T15:04:11.917Z,2.03
2023-04-24T15:06:41.784Z,2.30
2023-04-24T15:09:11.599Z,1.87
2023-04-24T15:11:41.551Z,1.87
2023-04-24T15:14:12.326Z,1.94
2023-04-24T15:16:42.782Z,1.92
2023-04-24T15:19:12.744Z,1.60
2023-04-24T15:21:43.576Z,1.43
2023-04-24T15:24:13.073Z,1.93
2023-04-24T15:26:42.923Z,2.00
2023-04-24T15:29:12.798Z,2.40
2023-04-24T15:31:42.889Z,2.40
2023-04-24T15:34:12.745Z,2.52
2023-04-24T15:36:42.865Z,3.08
2023-04-24T15:39:12.857Z,3.00
2023-04-24T15:41:42.708Z,2.97
2023-04-24T15:44:12.249Z,2.80
2023-04-24T15:46:42.165Z,2.83
2023-04-24T15:49:12.169Z,3.80
2023-04-24T15:51:42.469Z,3.20
2023-04-24T15:54:12.023Z,3.40
2023-04-24T15:56:41.843Z,3.20
2023-04-24T15:59:11.841Z,3.03
2023-04-24T16:01:41.911Z,2.80
2023-04-24T16:04:12.221Z,2.93
2023-04-24T16:06:42.544Z,3.13
2023-04-24T16:09:13.481Z,3.40
2023-04-24T16:11:44.479Z,2.98
2023-04-24T16:14:14.318Z,2.05
2023-04-24T16:16:44.482Z,2.67
2023-04-24T16:19:14.681Z,2.58
2023-04-24T16:21:44.536Z,2.77
2023-04-24T16:24:14.495Z,2.87
2023-04-24T16:26:44.859Z,2.77
2023-04-24T16:29:15.496Z,2.90
2023-04-24T16:31:45.666Z,3.07
2023-04-24T16:34:15.664Z,2.97
2023-04-24T16:36:45.739Z,2.57
2023-04-24T16:39:15.355Z,2.42
2023-04-24T16:41:45.343Z,3.03
2023-04-24T16:44:14.952Z,3.90
2023-04-24T16:46:44.956Z,2.90
2023-04-24T16:49:15.148Z,3.47
2023-04-24T16:51:45.453Z,3.00
2023-04-24T16:54:15.036Z,2.70
2023-04-24T16:56:45.030Z,3.23
2023-04-24T16:59:15.012Z,3.03
2023-04-24T17:01:45.015Z,3.53
2023-04-24T17:04:15.157Z,3.57
2023-04-24T17:06:45.093Z,3.33
2023-04-24T17:09:15.761Z,3.40
2023-04-24T17:11:45.668Z,2.33
2023-04-24T17:14:15.255Z,3.03
2023-04-24T17:16:46.078Z,3.07
2023-04-24T17:19:16.178Z,2.67
2023-04-24T17:21:46.362Z,3.17
2023-04-24T17:24:16.104Z,2.80
2023-04-24T17:26:46.179Z,2.77
2023-04-24T17:29:16.124Z,3.40
2023-04-24T17:31:46.397Z,2.87
2023-04-24T17:34:16.128Z,2.93
2023-04-24T17:36:46.068Z,2.97
2023-04-24T17:39:16.642Z,2.70
2023-04-24T17:41:46.555Z,3.93
2023-04-24T17:44:16.385Z,3.47
2023-04-24T17:46:46.676Z,3.65
2023-04-24T17:49:16.276Z,4.30
2023-04-24T17:51:46.218Z,3.90
2023-04-24T17:56:42.364Z,3.83
2023-04-24T17:59:12.295Z,3.80
2023-04-24T18:01:42.274Z,4.10
2023-04-24T18:04:12.172Z,3.53
2023-04-24T18:06:42.262Z,3.87
2023-04-24T18:09:12.870Z,3.67
2023-04-24T18:11:42.978Z,4.10
2023-04-24T18:14:12.858Z,4.17
2023-04-24T18:16:42.678Z,3.60
2023-04-24T18:19:12.820Z,3.55
2023-04-24T18:21:42.421Z,3.80
2023-04-24T18:24:12.345Z,4.10
2023-04-24T18:26:42.310Z,3.90
2023-04-24T18:29:12.175Z,3.53
2023-04-24T18:31:42.116Z,3.77
2023-04-24T18:34:11.951Z,4.43
2023-04-24T18:36:41.740Z,4.33
2023-04-24T18:39:11.551Z,4.03
2023-04-24T18:41:41.450Z,4.70
2023-04-24T18:44:11.956Z,3.94
2023-04-24T18:46:41.823Z,4.07
2023-04-24T18:49:11.746Z,3.90
2023-04-24T18:51:53.240Z,4.70
2023-04-24T18:54:13.147Z,4.17
2023-04-24T18:56:42.994Z,4.30
2023-04-24T18:59:12.792Z,4.30
2023-04-24T19:01:42.765Z,4.13
2023-04-24T19:04:13.709Z,4.30
2023-04-24T19:06:43.599Z,5.00
2023-04-24T19:09:14.484Z,4.20
2023-04-24T19:11:44.730Z,5.30
2023-04-24T19:14:16.101Z,4.93
2023-04-24T19:16:46.201Z,4.90
2023-04-24T19:19:16.113Z,4.87
2023-04-24T19:21:47.340Z,5.07
2023-04-24T19:24:18.947Z,4.60
2023-04-24T19:26:49.108Z,5.30
2023-04-24T19:29:18.937Z,4.97
2023-04-24T19:31:48.821Z,5.10
2023-04-24T19:34:18.650Z,4.35
2023-04-24T19:36:48.184Z,4.45
2023-04-24T19:39:17.969Z,4.33
2023-04-24T19:41:47.842Z,4.90
2023-04-24T19:44:17.656Z,5.35
2023-04-24T19:46:48.240Z,5.37
2023-04-24T19:49:18.320Z,5.03
2023-04-24T19:51:48.204Z,5.00
2023-04-24T19:54:19.809Z,4.20
2023-04-24T19:56:49.680Z,5.73
2023-04-24T19:59:19.488Z,5.47
2023-04-24T20:01:50.810Z,5.17
2023-04-24T20:04:22.740Z,5.12
2023-04-24T20:06:52.730Z,4.97
2023-04-24T20:09:22.842Z,5.22
2023-04-24T20:11:53.583Z,4.97
2023-04-24T20:14:23.271Z,4.77
2023-04-24T20:16:54.327Z,5.57
2023-04-24T20:19:24.128Z,4.73
2023-04-24T20:21:54.689Z,4.80
2023-04-24T20:24:24.222Z,4.78
2023-04-24T20:26:53.997Z,4.57
2023-04-24T20:29:23.860Z,4.73
2023-04-24T20:31:54.149Z,4.80
2023-04-24T20:34:24.553Z,4.62
2023-04-24T20:36:56.013Z,4.90
2023-04-24T20:39:26.626Z,6.93
2023-04-24T20:41:58.235Z,4.23
2023-04-24T20:44:27.936Z,4.50
2023-04-24T20:46:57.793Z,4.63
2023-04-24T20:49:27.378Z,4.90
2023-04-24T20:51:59.097Z,3.80
2023-04-24T20:54:28.863Z,3.67
2023-04-24T20:56:58.647Z,3.77
2023-04-24T20:59:29.022Z,3.17
2023-04-24T21:01:59.157Z,3.92
2023-04-24T21:04:29.077Z,3.07
2023-04-24T21:06:58.926Z,3.10
2023-04-24T21:09:28.796Z,2.80
2023-04-24T21:11:59.075Z,3.10
2023-04-24T21:14:28.907Z,2.83
2023-04-24T21:16:59.887Z,2.73
2023-04-24T21:19:29.891Z,2.43
2023-04-24T21:22:00.615Z,2.50
2023-04-24T21:24:30.800Z,2.60
2023-04-24T21:27:01.191Z,2.27
2023-04-24T21:29:31.088Z,2.17
2023-04-24T21:32:01.237Z,2.40
2023-04-24T21:34:30.998Z,2.70
2023-04-24T21:37:00.803Z,2.23
2023-04-24T21:39:30.633Z,2.00
2023-04-24T21:42:00.501Z,1.87
2023-04-24T21:44:30.633Z,1.87
2023-04-24T21:47:00.871Z,2.15
2023-04-24T21:49:30.689Z,1.97
2023-04-24T21:52:00.544Z,1.80
2023-04-24T21:54:30.329Z,2.60
2023-04-24T21:57:02.196Z,1.97
2023-04-24T21:59:32.150Z,2.10
2023-04-24T22:02:01.697Z,2.45
2023-04-24T22:04:31.676Z,2.30
2023-04-24T22:07:01.754Z,1.60
2023-04-24T22:09:31.853Z,2.10
2023-04-24T22:12:01.691Z,2.23
2023-04-24T22:14:31.292Z,1.95
2023-04-24T22:17:01.118Z,2.03
2023-04-24T22:19:30.925Z,2.17
2023-04-24T22:22:00.815Z,2.40
2023-04-24T22:24:30.682Z,2.23
2023-04-24T22:27:00.500Z,2.20
2023-04-24T22:29:31.503Z,2.13
2023-04-24T22:32:01.529Z,2.30
2023-04-24T22:34:31.638Z,2.42
2023-04-24T22:37:01.845Z,2.10
2023-04-24T22:39:31.630Z,2.40
2023-04-24T22:42:01.931Z,2.10
2023-04-24T22:44:31.830Z,2.50
2023-04-24T22:47:03.303Z,2.60
2023-04-24T22:49:34.830Z,2.60
2023-04-24T22:52:06.410Z,2.12
2023-04-24T22:54:36.258Z,3.07
2023-04-24T22:57:06.250Z,2.07
2023-04-24T22:59:36.186Z,2.17
2023-04-24T23:02:07.972Z,3.27
2023-04-24T23:04:37.819Z,2.23
2023-04-24T23:07:07.613Z,2.73
2023-04-24T23:09:37.200Z,2.80
2023-04-24T23:12:09.563Z,2.62
2023-04-24T23:14:39.652Z,2.40
2023-04-24T23:17:09.814Z,2.37
2023-04-24T23:19:39.678Z,2.03
2023-04-24T23:22:11.368Z,1.60
2023-04-24T23:24:41.326Z,2.10
2023-04-24T23:27:11.360Z,2.60
2023-04-24T23:29:41.191Z,2.70
2023-04-24T23:32:11.557Z,2.86
2023-04-24T23:34:41.457Z,2.30
2023-04-24T23:37:12.308Z,2.33
2023-04-24T23:39:42.087Z,2.37
2023-04-24T23:42:12.927Z,3.10
2023-04-24T23:44:42.840Z,2.43
2023-04-24T23:47:12.729Z,2.80
2023-04-24T23:49:42.885Z,3.30
2023-04-24T23:52:12.750Z,3.52
2023-04-24T23:54:42.903Z,2.77
2023-04-24T23:57:12.722Z,2.63
2023-04-24T23:59:42.532Z,3.70
